createdAt,value
2018-02-24T00:01:04.142Z,3.20
2018-02-24T00:03:33.589Z,3.10
2018-02-24T00:06:01.278Z,3.00
2018-02-24T00:08:28.940Z,3.00
2018-02-24T00:10:56.529Z,3.00
2018-02-24T00:13:24.133Z,3.00
2018-02-24T00:15:51.719Z,2.90
2018-02-24T00:18:21.020Z,2.80
2018-02-24T00:20:49.476Z,2.80
2018-02-24T00:23:17.844Z,2.90
2018-02-24T00:25:46.217Z,3.00
2018-02-24T00:28:14.221Z,2.80
2018-02-24T00:30:42.651Z,2.70
2018-02-24T00:33:11.839Z,2.80
2018-02-24T00:35:40.116Z,2.80
2018-02-24T00:38:07.715Z,2.50
2018-02-24T00:40:35.303Z,2.50
2018-02-24T00:43:04.011Z,2.70
2018-02-24T00:45:31.582Z,2.90
2018-02-24T00:47:59.207Z,2.90
2018-02-24T00:50:26.803Z,2.90
2018-02-24T00:52:55.476Z,2.90
2018-02-24T00:55:23.508Z,2.60
2018-02-24T00:57:51.839Z,2.80
2018-02-24T01:00:19.504Z,3.00
2018-02-24T01:02:47.127Z,3.30
2018-02-24T01:05:15.104Z,2.80
2018-02-24T01:07:42.681Z,2.80
2018-02-24T01:10:10.873Z,2.70
2018-02-24T01:12:39.199Z,2.80
2018-02-24T01:15:06.801Z,3.00
2018-02-24T01:17:35.148Z,3.30
2018-02-24T01:20:02.809Z,3.40
2018-02-24T01:22:31.150Z,3.50
2018-02-24T01:24:58.918Z,3.30
2018-02-24T01:27:27.096Z,3.40
2018-02-24T01:29:55.919Z,3.30
2018-02-24T01:32:24.401Z,3.40
2018-02-24T01:34:52.636Z,3.60
2018-02-24T01:37:20.222Z,3.60
2018-02-24T01:39:47.833Z,3.70
2018-02-24T01:42:17.518Z,3.70
2018-02-24T01:44:45.247Z,3.50
2018-02-24T01:47:13.227Z,3.40
2018-02-24T01:49:41.894Z,3.60
2018-02-24T01:52:11.261Z,3.60
2018-02-24T01:54:40.071Z,3.60
2018-02-24T01:57:07.644Z,3.60
2018-02-24T01:59:35.266Z,3.60
2018-02-24T02:02:02.858Z,3.60
2018-02-24T02:04:30.502Z,3.60
2018-02-24T02:06:58.096Z,3.30
2018-02-24T02:09:26.089Z,3.40
2018-02-24T02:11:54.949Z,3.50
2018-02-24T02:14:24.433Z,3.20
2018-02-24T02:16:52.044Z,3.00
2018-02-24T02:19:20.417Z,3.10
2018-02-24T02:21:48.824Z,3.10
2018-02-24T02:24:18.869Z,3.40
2018-02-24T02:26:47.369Z,3.50
2018-02-24T02:29:14.989Z,3.40
2018-02-24T02:31:42.574Z,3.40
2018-02-24T02:34:10.195Z,3.20
2018-02-24T02:36:37.810Z,3.10
2018-02-24T02:39:05.447Z,2.90
2018-02-24T02:41:33.055Z,3.00
2018-02-24T02:44:01.177Z,3.00
2018-02-24T02:46:30.512Z,2.80
2018-02-24T02:48:58.474Z,2.70
2018-02-24T02:51:26.855Z,2.70
2018-02-24T02:53:54.659Z,2.50
2018-02-24T02:56:22.513Z,2.40
2018-02-24T02:58:50.454Z,2.70
2018-02-24T03:01:19.341Z,2.60
2018-02-24T03:03:46.988Z,2.60
2018-02-24T03:06:14.703Z,2.60
2018-02-24T03:08:42.314Z,2.80
2018-02-24T03:11:09.936Z,2.90
2018-02-24T03:13:38.662Z,2.80
2018-02-24T03:16:07.682Z,2.70
2018-02-24T03:18:35.508Z,2.70
2018-02-24T03:21:03.534Z,2.40
2018-02-24T03:23:31.125Z,2.30
2018-02-24T03:25:59.585Z,2.30
2018-02-24T03:28:27.211Z,2.30
2018-02-24T03:30:54.858Z,2.30
2018-02-24T03:33:22.468Z,2.00
2018-02-24T03:35:50.548Z,2.10
2018-02-24T03:38:18.232Z,2.00
2018-02-24T03:40:45.866Z,2.10
2018-02-24T03:43:15.072Z,2.00
2018-02-24T03:46:01.908Z,1.80
2018-02-24T03:48:31.150Z,1.70
2018-02-24T03:50:59.760Z,1.80
2018-02-24T03:53:27.362Z,1.70
2018-02-24T03:55:55.017Z,1.80
2018-02-24T03:58:25.955Z,1.70
2018-02-24T04:00:55.615Z,1.60
2018-02-24T04:03:23.199Z,1.70
2018-02-24T04:05:50.826Z,1.80
2018-02-24T04:08:18.407Z,1.60
2018-02-24T04:10:46.109Z,1.10
2018-02-24T04:13:15.402Z,1.00
2018-02-24T04:15:44.078Z,1.10
2018-02-24T04:18:12.450Z,1.10
2018-02-24T04:20:40.824Z,1.10
2018-02-24T04:23:09.221Z,0.80
2018-02-24T04:25:37.588Z,0.80
2018-02-24T04:28:05.972Z,0.90
2018-02-24T04:30:34.271Z,0.90
2018-02-24T04:33:04.107Z,1.10
2018-02-24T04:35:31.738Z,1.30
2018-02-24T04:37:59.335Z,1.10
2018-02-24T04:40:26.969Z,1.10
2018-02-24T04:42:54.597Z,1.10
2018-02-24T04:45:24.017Z,1.20
2018-02-24T04:47:52.032Z,1.30
2018-02-24T04:50:19.653Z,1.40
2018-02-24T04:52:48.018Z,1.40
2018-02-24T04:55:16.398Z,1.50
2018-02-24T04:57:44.020Z,1.40
2018-02-24T05:00:11.903Z,1.30
2018-02-24T05:02:40.123Z,1.10
2018-02-24T05:05:08.605Z,1.20
2018-02-24T05:07:36.187Z,1.20
2018-02-24T05:10:03.798Z,1.10
2018-02-24T05:12:32.179Z,1.00
2018-02-24T05:15:00.532Z,1.00
2018-02-24T05:17:28.168Z,1.00
2018-02-24T05:19:55.763Z,0.90
2018-02-24T05:22:23.381Z,0.90
2018-02-24T05:24:51.038Z,0.90
2018-02-24T05:27:18.626Z,0.90
2018-02-24T05:29:46.265Z,0.70
2018-02-24T05:32:15.745Z,0.80
2018-02-24T05:34:44.711Z,0.90
2018-02-24T05:37:13.554Z,0.80
2018-02-24T05:39:41.190Z,1.10
2018-02-24T05:42:08.798Z,0.90
2018-02-24T05:44:36.479Z,0.90
2018-02-24T05:47:04.116Z,0.70
2018-02-24T05:49:32.117Z,0.70
2018-02-24T05:52:00.134Z,0.70
2018-02-24T05:54:28.377Z,0.40
2018-02-24T05:56:58.720Z,0.30
2018-02-24T05:59:26.303Z,0.20
2018-02-24T06:01:53.919Z,0.30
2018-02-24T06:04:22.016Z,0.30
2018-02-24T06:06:50.409Z,0.50
2018-02-24T06:09:18.021Z,0.70
2018-02-24T06:11:47.651Z,0.80
2018-02-24T06:14:15.269Z,0.90
2018-02-24T06:16:43.288Z,0.60
2018-02-24T06:19:10.897Z,0.50
2018-02-24T06:21:39.722Z,0.60
2018-02-24T06:24:07.299Z,0.60
2018-02-24T06:26:35.294Z,0.60
2018-02-24T06:29:04.317Z,0.70
2018-02-24T06:31:33.525Z,0.60
2018-02-24T06:34:01.157Z,0.40
2018-02-24T06:36:30.330Z,0.40
2018-02-24T06:38:58.535Z,0.40
2018-02-24T06:41:26.741Z,0.10
2018-02-24T06:43:55.771Z,0.00
2018-02-24T06:46:23.634Z,0.10
2018-02-24T06:48:51.270Z,0.10
2018-02-24T06:51:18.889Z,0.10
2018-02-24T06:53:46.545Z,0.10
2018-02-24T06:56:14.182Z,-0.20
2018-02-24T06:58:42.543Z,0.00
2018-02-24T07:01:10.181Z,0.00
2018-02-24T07:03:38.466Z,-0.10
2018-02-24T07:06:08.927Z,0.00
2018-02-24T07:08:36.560Z,0.00
2018-02-24T07:11:04.872Z,0.20
2018-02-24T07:13:33.161Z,0.20
2018-02-24T07:16:00.770Z,0.20
2018-02-24T07:18:28.389Z,0.10
2018-02-24T07:20:57.286Z,0.20
2018-02-24T07:23:25.292Z,0.40
2018-02-24T07:25:52.877Z,0.70
2018-02-24T07:28:20.691Z,0.80
2018-02-24T07:30:48.631Z,0.60
2018-02-24T07:33:16.262Z,0.80
2018-02-24T07:35:44.414Z,1.10
2018-02-24T07:38:12.824Z,1.30
2018-02-24T07:40:41.326Z,1.20
2018-02-24T07:43:10.447Z,1.20
2018-02-24T07:45:38.802Z,1.20
2018-02-24T07:48:06.424Z,1.10
2018-02-24T07:50:34.017Z,1.30
2018-02-24T07:53:01.621Z,1.80
2018-02-24T07:55:30.433Z,2.20
2018-02-24T07:57:59.525Z,2.90
2018-02-24T08:00:27.174Z,2.90
2018-02-24T08:02:54.779Z,2.80
2018-02-24T08:05:22.368Z,3.40
2018-02-24T08:07:52.744Z,4.00
2018-02-24T08:10:20.469Z,4.00
2018-02-24T08:12:50.807Z,3.40
2018-02-24T08:15:18.842Z,2.60
2018-02-24T08:17:46.603Z,2.10
2018-02-24T08:20:16.906Z,1.40
2018-02-24T08:22:44.900Z,1.50
2018-02-24T08:25:12.491Z,1.50
2018-02-24T08:27:40.857Z,1.10
2018-02-24T08:30:08.588Z,1.10
2018-02-24T08:32:36.973Z,0.90
2018-02-24T08:35:05.572Z,1.20
2018-02-24T08:37:33.266Z,1.50
2018-02-24T08:40:01.668Z,1.30
2018-02-24T08:42:29.499Z,1.20
2018-02-24T08:44:57.081Z,1.10
2018-02-24T08:47:25.972Z,1.20
2018-02-24T08:49:54.096Z,1.30
2018-02-24T08:52:21.680Z,1.00
2018-02-24T08:54:49.321Z,2.10
2018-02-24T08:57:17.884Z,2.90
2018-02-24T08:59:45.871Z,2.50
2018-02-24T09:02:13.777Z,2.00
2018-02-24T09:04:42.194Z,2.20
2018-02-24T09:07:11.153Z,2.30
2018-02-24T09:09:39.003Z,2.30
2018-02-24T09:12:07.548Z,2.50
2018-02-24T09:14:35.147Z,2.00
2018-02-24T09:17:04.625Z,1.80
2018-02-24T09:20:01.379Z,1.90
2018-02-24T09:22:29.232Z,1.70
2018-02-24T09:24:58.245Z,1.50
2018-02-24T09:27:25.867Z,1.50
2018-02-24T09:29:53.486Z,1.30
2018-02-24T09:32:21.064Z,1.30
2018-02-24T09:34:48.670Z,1.40
2018-02-24T09:37:17.101Z,2.00
2018-02-24T09:39:44.756Z,2.00
2018-02-24T09:42:14.270Z,2.10
2018-02-24T09:44:42.079Z,2.30
2018-02-24T09:47:12.601Z,2.40
2018-02-24T09:49:40.202Z,2.50
2018-02-24T09:52:07.780Z,2.70
2018-02-24T09:54:36.155Z,2.30
2018-02-24T09:57:04.064Z,2.30
2018-02-24T09:59:33.136Z,2.30
2018-02-24T10:02:01.135Z,2.20
2018-02-24T10:04:28.720Z,2.40
2018-02-24T10:06:56.301Z,2.80
2018-02-24T10:09:23.932Z,3.10
2018-02-24T10:11:52.260Z,2.90
2018-02-24T10:14:19.860Z,2.70
2018-02-24T10:16:48.203Z,2.60
2018-02-24T10:19:15.807Z,3.00
2018-02-24T10:21:45.126Z,3.20
2018-02-24T10:24:13.311Z,3.20
2018-02-24T10:26:40.954Z,3.60
2018-02-24T10:29:08.567Z,3.70
2018-02-24T10:31:36.166Z,3.90
2018-02-24T10:34:05.610Z,4.00
2018-02-24T10:36:33.597Z,4.00
2018-02-24T10:39:02.253Z,4.30
2018-02-24T10:41:29.832Z,4.20
2018-02-24T10:43:57.421Z,4.50
2018-02-24T10:46:25.016Z,4.90
2018-02-24T10:49:04.699Z,5.10
2018-02-24T10:51:32.280Z,5.10
2018-02-24T10:54:00.490Z,5.40
2018-02-24T10:56:31.122Z,5.50
2018-02-24T10:58:59.556Z,5.60
2018-02-24T11:01:27.158Z,5.60
2018-02-24T11:03:55.520Z,5.70
2018-02-24T11:06:23.865Z,5.70
2018-02-24T11:08:51.451Z,5.90
2018-02-24T11:11:19.039Z,6.10
2018-02-24T11:13:48.935Z,6.50
2018-02-24T11:16:17.550Z,6.80
2018-02-24T11:18:45.123Z,6.90
2018-02-24T11:21:12.735Z,7.00
2018-02-24T11:23:41.229Z,7.10
2018-02-24T11:26:09.274Z,7.40
2018-02-24T11:28:38.305Z,7.80
2018-02-24T11:31:06.308Z,8.10
2018-02-24T11:33:33.873Z,8.20
2018-02-24T11:36:01.535Z,8.30
2018-02-24T11:38:29.117Z,8.60
2018-02-24T11:40:56.729Z,8.50
2018-02-24T11:43:24.311Z,8.30
2018-02-24T11:45:51.953Z,8.60
2018-02-24T11:48:19.510Z,8.50
2018-02-24T11:50:48.804Z,8.60
2018-02-24T11:53:18.116Z,8.60
2018-02-24T11:55:46.560Z,8.80
2018-02-24T11:58:14.947Z,8.80
2018-02-24T12:00:42.581Z,9.10
2018-02-24T12:03:10.151Z,9.20
2018-02-24T12:05:38.755Z,9.40
2018-02-24T12:08:07.619Z,9.40
2018-02-24T12:10:36.048Z,9.70
2018-02-24T12:13:03.629Z,10.10
2018-02-24T12:15:31.655Z,10.20
2018-02-24T12:18:00.691Z,10.50
2018-02-24T12:20:28.377Z,10.50
2018-02-24T12:22:55.954Z,10.80
2018-02-24T12:25:24.386Z,11.40
2018-02-24T12:27:52.087Z,11.60
2018-02-24T12:30:33.672Z,11.80
2018-02-24T12:33:03.072Z,11.90
2018-02-24T12:35:31.144Z,11.90
2018-02-24T12:38:01.733Z,12.00
2018-02-24T12:40:29.343Z,12.00
2018-02-24T12:42:56.910Z,11.90
2018-02-24T12:45:25.263Z,11.80
2018-02-24T12:47:53.287Z,11.30
2018-02-24T12:50:22.650Z,9.30
2018-02-24T12:52:50.306Z,11.50
2018-02-24T12:55:17.905Z,11.90
2018-02-24T12:57:45.989Z,12.20
2018-02-24T13:00:14.324Z,12.10
2018-02-24T13:02:42.315Z,12.20
2018-02-24T13:05:13.168Z,11.50
2018-02-24T13:07:41.348Z,11.50
2018-02-24T13:10:11.558Z,11.80
2018-02-24T13:12:39.328Z,12.60
2018-02-24T13:15:07.406Z,12.70
2018-02-24T13:17:37.631Z,13.40
2018-02-24T13:20:05.399Z,13.40
2018-02-24T13:22:32.980Z,13.40
2018-02-24T13:25:01.042Z,13.50
2018-02-24T13:27:28.702Z,12.10
2018-02-24T13:29:58.472Z,12.40
2018-02-24T13:32:26.090Z,12.50
2018-02-24T13:34:53.690Z,13.20
2018-02-24T13:37:22.371Z,13.60
2018-02-24T13:39:50.454Z,13.70
2018-02-24T13:42:20.312Z,14.30
2018-02-24T13:44:49.125Z,15.20
2018-02-24T13:47:16.735Z,15.50
2018-02-24T13:49:44.360Z,15.60
2018-02-24T13:52:12.604Z,15.60
2018-02-24T13:54:40.768Z,15.10
2018-02-24T13:57:09.108Z,15.20
2018-02-24T13:59:36.687Z,15.20
2018-02-24T14:02:05.039Z,14.10
2018-02-24T14:04:32.615Z,14.00
2018-02-24T14:07:00.800Z,14.10
2018-02-24T14:09:29.164Z,14.20
2018-02-24T14:11:57.195Z,14.80
2018-02-24T14:14:24.791Z,14.70
2018-02-24T14:16:53.049Z,14.30
2018-02-24T14:19:20.682Z,14.30
2018-02-24T14:21:48.267Z,14.30
2018-02-24T14:24:40.414Z,14.30
2018-02-24T14:27:09.514Z,14.90
2018-02-24T14:29:37.097Z,15.60
2018-02-24T14:32:04.881Z,16.00
2018-02-24T14:34:32.527Z,15.50
2018-02-24T14:37:06.834Z,14.50
2018-02-24T14:39:36.161Z,15.50
2018-02-24T14:42:03.971Z,15.50
2018-02-24T14:44:31.877Z,14.20
2018-02-24T14:47:01.231Z,14.20
2018-02-24T14:49:28.820Z,14.60
2018-02-24T14:51:56.443Z,15.30
2018-02-24T14:54:24.213Z,16.10
2018-02-24T14:56:52.103Z,15.50
2018-02-24T14:59:19.988Z,14.80
2018-02-24T15:01:48.430Z,14.70
2018-02-24T15:04:16.047Z,13.80
2018-02-24T15:06:44.417Z,14.30
2018-02-24T15:09:12.805Z,14.70
2018-02-24T15:11:41.021Z,15.50
2018-02-24T15:14:08.611Z,15.50
2018-02-24T15:16:36.581Z,16.00
2018-02-24T15:19:05.044Z,16.10
2018-02-24T15:21:33.628Z,16.10
2018-02-24T15:24:01.498Z,16.00
2018-02-24T15:26:29.769Z,14.70
2018-02-24T15:28:59.008Z,14.60
2018-02-24T15:31:27.396Z,15.30
2018-02-24T15:33:55.742Z,15.60
2018-02-24T15:36:24.117Z,15.60
2018-02-24T15:38:52.039Z,15.60
2018-02-24T15:41:19.653Z,16.00
2018-02-24T15:43:49.020Z,14.20
2018-02-24T15:46:16.686Z,14.00
2018-02-24T15:48:44.255Z,14.40
2018-02-24T15:51:11.859Z,14.60
2018-02-24T15:53:40.248Z,15.10
2018-02-24T15:56:08.596Z,15.00
2018-02-24T15:58:36.420Z,13.80
2018-02-24T16:01:04.879Z,12.70
2018-02-24T16:03:38.365Z,13.80
2018-02-24T16:06:07.199Z,12.70
2018-02-24T17:28:21.139Z,4.10
2018-02-24T17:30:48.855Z,4.00
2018-02-24T17:33:16.457Z,4.30
2018-02-24T17:35:44.842Z,4.10
2018-02-24T17:38:13.208Z,3.90
2018-02-24T17:40:41.851Z,3.70
2018-02-24T17:43:09.473Z,8.10
2018-02-24T17:45:37.542Z,4.00
2018-02-24T17:48:06.591Z,4.20
2018-02-24T17:50:34.161Z,4.30
2018-02-24T17:53:01.723Z,4.50
2018-02-24T17:55:31.260Z,4.60
2018-02-24T17:58:12.258Z,4.10
2018-02-24T18:00:42.950Z,3.90
2018-02-24T18:03:11.352Z,4.00
2018-02-24T18:05:41.359Z,3.90
2018-02-24T18:08:09.098Z,4.00
2018-02-24T18:10:36.663Z,3.80
2018-02-24T18:13:04.266Z,3.50
2018-02-24T18:15:32.609Z,3.70
2018-02-24T18:18:00.599Z,3.60
2018-02-24T18:20:29.588Z,3.40
2018-02-24T18:22:57.248Z,3.10
2018-02-24T18:25:25.081Z,3.30
2018-02-24T18:27:52.809Z,3.40
2018-02-24T18:30:20.426Z,3.40
2018-02-24T18:32:48.771Z,3.10
2018-02-24T18:35:17.382Z,3.00
2018-02-24T18:37:44.984Z,2.90
2018-02-24T18:40:12.609Z,3.10
2018-02-24T18:42:40.516Z,3.10
2018-02-24T18:45:08.477Z,3.40
2018-02-24T18:47:36.141Z,3.30
2018-02-24T18:50:03.750Z,3.00
2018-02-24T18:52:31.518Z,2.70
2018-02-24T18:54:59.103Z,2.70
2018-02-24T18:57:28.557Z,2.60
2018-02-24T18:59:57.224Z,2.60
2018-02-24T19:02:24.805Z,2.40
2018-02-24T19:04:52.425Z,2.40
2018-02-24T19:07:20.029Z,2.40
2018-02-24T19:09:47.746Z,2.30
2018-02-24T19:12:15.313Z,2.30
2018-02-24T19:14:43.189Z,2.50
2018-02-24T19:17:11.666Z,2.90
2018-02-24T19:19:39.347Z,2.90
2018-02-24T19:22:07.013Z,3.00
2018-02-24T19:24:34.623Z,2.90
2018-02-24T19:27:02.203Z,2.40
2018-02-24T19:29:30.399Z,2.20
2018-02-24T19:31:57.985Z,2.20
2018-02-24T19:34:26.363Z,2.00
2018-02-24T19:36:54.720Z,1.90
2018-02-24T19:39:22.432Z,2.00
2018-02-24T19:41:50.389Z,2.10
2018-02-24T19:44:18.021Z,1.90
2018-02-24T19:46:45.665Z,1.90
2018-02-24T19:49:13.818Z,1.80
2018-02-24T19:51:41.868Z,1.80
2018-02-24T19:54:09.491Z,1.90
2018-02-24T19:56:37.920Z,1.90
2018-02-24T19:59:05.744Z,1.90
2018-02-24T20:01:33.418Z,2.30
2018-02-24T20:04:01.913Z,2.00
2018-02-24T20:06:29.933Z,2.00
2018-02-24T20:08:57.511Z,2.10
2018-02-24T20:11:25.126Z,1.90
2018-02-24T20:13:53.141Z,1.80
2018-02-24T20:16:21.659Z,1.80
2018-02-24T20:18:49.636Z,2.00
2018-02-24T20:21:17.897Z,1.80
2018-02-24T20:23:47.079Z,1.50
2018-02-24T20:26:16.507Z,1.70
2018-02-24T20:28:44.255Z,1.80
2018-02-24T20:31:13.159Z,1.50
2018-02-24T20:33:40.949Z,1.50
2018-02-24T20:36:08.569Z,1.50
2018-02-24T20:38:36.995Z,1.40
2018-02-24T20:41:04.804Z,1.40
2018-02-24T20:43:32.382Z,1.40
2018-02-24T20:46:00.468Z,1.50
2018-02-24T20:48:28.542Z,1.20
2018-02-24T20:50:56.293Z,1.10
2018-02-24T20:53:23.872Z,1.10
2018-02-24T20:55:51.475Z,0.90
2018-02-24T20:58:19.833Z,1.10
2018-02-24T21:00:47.621Z,1.20
2018-02-24T21:03:15.997Z,1.20
2018-02-24T21:05:44.249Z,0.80
2018-02-24T21:08:12.659Z,0.80
2018-02-24T21:10:40.398Z,0.80
2018-02-24T21:13:09.072Z,1.20
2018-02-24T21:15:36.744Z,1.10
2018-02-24T21:18:04.725Z,1.40
2018-02-24T21:20:32.336Z,1.60
2018-02-24T21:22:59.961Z,1.60
2018-02-24T21:25:28.346Z,2.00
2018-02-24T21:27:56.018Z,2.00
2018-02-24T21:30:24.696Z,1.80
2018-02-24T21:32:52.356Z,1.80
2018-02-24T21:35:19.933Z,1.50
2018-02-24T21:37:48.318Z,1.30
2018-02-24T21:40:16.649Z,1.40
2018-02-24T21:42:44.356Z,1.60
2018-02-24T21:45:12.441Z,1.70
2018-02-24T21:47:41.458Z,1.40
2018-02-24T21:50:09.035Z,0.90
2018-02-24T21:52:37.570Z,0.70
2018-02-24T21:55:05.361Z,0.90
2018-02-24T21:57:33.666Z,0.90
2018-02-24T22:00:01.673Z,0.80
2018-02-24T22:02:29.299Z,0.60
2018-02-24T22:04:56.927Z,0.60
2018-02-24T22:07:25.318Z,0.90
2018-02-24T22:09:53.644Z,1.00
2018-02-24T22:12:21.824Z,0.90
2018-02-24T22:14:49.670Z,0.70
2018-02-24T22:17:17.688Z,0.60
2018-02-24T22:19:45.786Z,0.40
2018-02-24T22:22:13.580Z,0.00
2018-02-24T22:24:41.433Z,-0.30
2018-02-24T22:27:09.105Z,0.00
2018-02-24T22:29:38.454Z,0.40
2018-02-24T22:32:06.863Z,0.40
2018-02-24T22:34:34.585Z,0.30
2018-02-24T22:37:02.278Z,-0.10
2018-02-24T22:39:29.886Z,0.10
2018-02-24T22:41:58.018Z,0.40
2018-02-24T22:44:26.392Z,0.20
2018-02-24T22:46:54.747Z,0.20
2018-02-24T22:49:22.355Z,0.10
2018-02-24T22:51:50.554Z,-0.20
2018-02-24T22:54:18.217Z,-0.20
2018-02-24T22:56:46.227Z,-0.30
2018-02-24T22:59:13.832Z,-0.30
2018-02-24T23:01:41.502Z,-0.20
2018-02-24T23:04:09.668Z,-0.10
2018-02-24T23:06:37.946Z,-0.10
2018-02-24T23:09:05.552Z,-0.10
2018-02-24T23:11:33.124Z,0.10
2018-02-24T23:14:01.155Z,-0.20
2018-02-24T23:16:28.910Z,-0.10
2018-02-24T23:18:56.559Z,-0.20
2018-02-24T23:21:24.986Z,-0.50
2018-02-24T23:23:52.594Z,-0.90
2018-02-24T23:26:20.175Z,-0.80
2018-02-24T23:28:47.777Z,-0.50
2018-02-24T23:31:15.556Z,-0.80
2018-02-24T23:33:44.367Z,-0.60
2018-02-24T23:36:12.153Z,-0.60
2018-02-24T23:38:39.756Z,-0.40
2018-02-24T23:41:07.377Z,-0.30
2018-02-24T23:43:35.030Z,-0.30
2018-02-24T23:46:05.955Z,-0.30
2018-02-24T23:48:33.587Z,-0.70
2018-02-24T23:51:01.593Z,-0.60
2018-02-24T23:53:29.241Z,-0.90
2018-02-24T23:55:57.766Z,-0.60
2018-02-24T23:58:25.793Z,-0.50
